sensor_id;sensor_type;location;lat;lon;timestamp;pressure;altitude;pressure_sealevel;temperature;humidity
34674;BME280;20879;55.668;37.858;2023-06-14T00:02:36;100177.63;;;11.99;63.60
34674;BME280;20879;55.668;37.858;2023-06-14T00:05:08;100153.59;;;11.83;64.11
34674;BME280;20879;55.668;37.858;2023-06-14T00:07:44;100187.13;;;12.01;64.10
34674;BME280;20879;55.668;37.858;2023-06-14T00:10:15;100181.25;;;11.85;64.10
34674;BME280;20879;55.668;37.858;2023-06-14T00:12:49;100193.31;;;11.89;64.43
34674;BME280;20879;55.668;37.858;2023-06-14T00:15:19;100189.00;;;11.88;64.92
34674;BME280;20879;55.668;37.858;2023-06-14T00:17:50;100187.31;;;11.84;64.79
34674;BME280;20879;55.668;37.858;2023-06-14T00:20:21;100195.09;;;11.87;65.51
34674;BME280;20879;55.668;37.858;2023-06-14T00:22:56;100188.22;;;11.83;65.02
34674;BME280;20879;55.668;37.858;2023-06-14T00:25:26;100178.81;;;11.73;65.94
34674;BME280;20879;55.668;37.858;2023-06-14T00:28:03;100184.84;;;11.75;65.84
34674;BME280;20879;55.668;37.858;2023-06-14T00:30:35;100182.22;;;11.78;65.92
34674;BME280;20879;55.668;37.858;2023-06-14T00:33:04;100185.69;;;11.77;65.58
34674;BME280;20879;55.668;37.858;2023-06-14T00:35:40;100185.66;;;11.80;66.32
34674;BME280;20879;55.668;37.858;2023-06-14T00:38:10;100180.50;;;11.77;65.81
34674;BME280;20879;55.668;37.858;2023-06-14T00:40:44;100183.13;;;11.74;66.16
34674;BME280;20879;55.668;37.858;2023-06-14T00:43:14;100184.91;;;11.70;66.40
34674;BME280;20879;55.668;37.858;2023-06-14T00:45:43;100183.25;;;11.65;66.67
34674;BME280;20879;55.668;37.858;2023-06-14T00:48:19;100183.28;;;11.62;66.78
34674;BME280;20879;55.668;37.858;2023-06-14T00:50:51;100185.88;;;11.62;67.83
34674;BME280;20879;55.668;37.858;2023-06-14T00:53:21;100149.94;;;11.29;67.56
34674;BME280;20879;55.668;37.858;2023-06-14T00:55:54;100190.22;;;11.60;67.85
34674;BME280;20879;55.668;37.858;2023-06-14T00:58:31;100169.53;;;11.53;67.58
34674;BME280;20879;55.668;37.858;2023-06-14T01:01:01;100183.09;;;11.76;67.00
34674;BME280;20879;55.668;37.858;2023-06-14T01:03:34;100188.84;;;12.04;66.62
34674;BME280;20879;55.668;37.858;2023-06-14T01:06:14;100183.94;;;12.45;65.53
34674;BME280;20879;55.668;37.858;2023-06-14T01:09:03;100190.06;;;12.92;64.32
34674;BME280;20879;55.668;37.858;2023-06-14T01:11:47;100188.41;;;13.38;63.27
34674;BME280;20879;55.668;37.858;2023-06-14T01:14:19;100190.97;;;13.83;61.83
34674;BME280;20879;55.668;37.858;2023-06-14T01:17:00;100192.34;;;14.39;60.23
34674;BME280;20879;55.668;37.858;2023-06-14T01:19:32;100186.94;;;14.84;58.50
34674;BME280;20879;55.668;37.858;2023-06-14T01:22:04;100184.06;;;15.28;57.03
34674;BME280;20879;55.668;37.858;2023-06-14T01:24:41;100182.09;;;15.67;56.06
34674;BME280;20879;55.668;37.858;2023-06-14T01:27:16;100178.38;;;16.06;54.95
34674;BME280;20879;55.668;37.858;2023-06-14T01:29:54;100177.63;;;16.31;53.76
34674;BME280;20879;55.668;37.858;2023-06-14T01:32:27;100179.66;;;16.49;53.39
34674;BME280;20879;55.668;37.858;2023-06-14T01:34:59;100166.78;;;16.70;53.22
34674;BME280;20879;55.668;37.858;2023-06-14T01:37:37;100186.75;;;17.24;51.74
34674;BME280;20879;55.668;37.858;2023-06-14T01:40:19;100170.47;;;17.65;49.93
34674;BME280;20879;55.668;37.858;2023-06-14T01:42:51;100178.97;;;17.95;48.70
34674;BME280;20879;55.668;37.858;2023-06-14T01:45:22;100182.47;;;17.22;49.90
34674;BME280;20879;55.668;37.858;2023-06-14T01:47:52;100183.03;;;15.96;53.29
34674;BME280;20879;55.668;37.858;2023-06-14T01:50:32;100192.34;;;15.11;55.95
34674;BME280;20879;55.668;37.858;2023-06-14T01:53:06;100194.72;;;14.48;57.55
34674;BME280;20879;55.668;37.858;2023-06-14T01:55:43;100159.63;;;13.88;58.96
34674;BME280;20879;55.668;37.858;2023-06-14T01:58:16;100189.09;;;13.90;58.99
34674;BME280;20879;55.668;37.858;2023-06-14T02:00:50;100191.91;;;13.79;59.52
34674;BME280;20879;55.668;37.858;2023-06-14T02:03:22;100192.28;;;13.62;60.30
34674;BME280;20879;55.668;37.858;2023-06-14T02:05:52;100186.41;;;13.52;60.43
34674;BME280;20879;55.668;37.858;2023-06-14T02:08:22;100189.03;;;13.51;60.75
34674;BME280;20879;55.668;37.858;2023-06-14T02:10:54;100184.81;;;13.45;61.44
34674;BME280;20879;55.668;37.858;2023-06-14T02:13:23;100186.59;;;13.43;61.09
34674;BME280;20879;55.668;37.858;2023-06-14T02:15:53;100187.50;;;13.40;61.18
34674;BME280;20879;55.668;37.858;2023-06-14T02:18:24;100190.09;;;13.40;61.35
34674;BME280;20879;55.668;37.858;2023-06-14T02:21:15;100190.13;;;13.39;60.88
34674;BME280;20879;55.668;37.858;2023-06-14T02:23:51;100193.50;;;13.42;61.30
34674;BME280;20879;55.668;37.858;2023-06-14T02:26:23;100194.38;;;13.43;61.67
34674;BME280;20879;55.668;37.858;2023-06-14T02:29:01;100166.00;;;13.29;61.32
34674;BME280;20879;55.668;37.858;2023-06-14T02:31:31;100191.75;;;13.44;61.27
34674;BME280;20879;55.668;37.858;2023-06-14T02:34:08;100193.38;;;13.50;61.93
34674;BME280;20879;55.668;37.858;2023-06-14T02:36:37;100197.59;;;13.57;61.53
34674;BME280;20879;55.668;37.858;2023-06-14T02:39:08;100167.47;;;13.44;61.32
34674;BME280;20879;55.668;37.858;2023-06-14T02:41:46;100189.50;;;13.70;61.69
34674;BME280;20879;55.668;37.858;2023-06-14T02:44:17;100197.13;;;13.79;61.53
34674;BME280;20879;55.668;37.858;2023-06-14T02:46:46;100186.00;;;13.72;60.89
34674;BME280;20879;55.668;37.858;2023-06-14T02:49:22;100191.84;;;13.82;61.09
34674;BME280;20879;55.668;37.858;2023-06-14T02:51:57;100196.94;;;13.88;61.50
34674;BME280;20879;55.668;37.858;2023-06-14T02:54:42;100184.84;;;13.86;61.39
34674;BME280;20879;55.668;37.858;2023-06-14T02:57:15;100195.00;;;13.98;61.69
34674;BME280;20879;55.668;37.858;2023-06-14T02:59:45;100185.56;;;13.92;61.05
34674;BME280;20879;55.668;37.858;2023-06-14T03:02:14;100202.66;;;14.06;60.66
34674;BME280;20879;55.668;37.858;2023-06-14T03:04:48;100209.47;;;14.10;60.69
34674;BME280;20879;55.668;37.858;2023-06-14T03:07:19;100200.78;;;14.11;60.20
34674;BME280;20879;55.668;37.858;2023-06-14T03:09:51;100198.91;;;14.18;59.69
34674;BME280;20879;55.668;37.858;2023-06-14T03:12:23;100190.13;;;14.23;60.01
34674;BME280;20879;55.668;37.858;2023-06-14T03:15:00;100197.69;;;14.34;59.49
34674;BME280;20879;55.668;37.858;2023-06-14T03:17:39;100202.72;;;14.40;59.65
34674;BME280;20879;55.668;37.858;2023-06-14T03:20:14;100204.34;;;14.46;59.04
34674;BME280;20879;55.668;37.858;2023-06-14T03:22:50;100199.78;;;14.56;58.32
34674;BME280;20879;55.668;37.858;2023-06-14T03:25:21;100196.94;;;14.66;58.43
34674;BME280;20879;55.668;37.858;2023-06-14T03:27:54;100187.34;;;14.68;58.18
34674;BME280;20879;55.668;37.858;2023-06-14T03:30:23;100192.91;;;14.89;57.99
34674;BME280;20879;55.668;37.858;2023-06-14T03:32:59;100190.19;;;15.89;55.59
34674;BME280;20879;55.668;37.858;2023-06-14T03:35:30;100193.00;;;16.95;52.73
34674;BME280;20879;55.668;37.858;2023-06-14T03:38:00;100193.59;;;17.52;51.22
34674;BME280;20879;55.668;37.858;2023-06-14T03:40:30;100197.28;;;17.95;50.15
34674;BME280;20879;55.668;37.858;2023-06-14T03:43:04;100181.72;;;18.14;48.92
34674;BME280;20879;55.668;37.858;2023-06-14T03:45:34;100195.78;;;18.34;48.88
34674;BME280;20879;55.668;37.858;2023-06-14T03:48:05;100190.66;;;18.53;48.05
34674;BME280;20879;55.668;37.858;2023-06-14T03:50:36;100195.50;;;18.64;47.64
34674;BME280;20879;55.668;37.858;2023-06-14T03:53:06;100169.34;;;18.61;46.35
34674;BME280;20879;55.668;37.858;2023-06-14T03:55:45;100188.13;;;18.72;46.57
34674;BME280;20879;55.668;37.858;2023-06-14T03:58:22;100185.44;;;18.74;45.28
34674;BME280;20879;55.668;37.858;2023-06-14T04:00:51;100192.22;;;18.79;46.07
34674;BME280;20879;55.668;37.858;2023-06-14T04:03:30;100185.94;;;18.83;45.13
34674;BME280;20879;55.668;37.858;2023-06-14T04:06:12;100185.94;;;18.83;45.22
34674;BME280;20879;55.668;37.858;2023-06-14T04:08:48;100187.75;;;18.81;44.67
34674;BME280;20879;55.668;37.858;2023-06-14T04:11:18;100184.34;;;18.79;44.63
34674;BME280;20879;55.668;37.858;2023-06-14T04:14:02;100188.00;;;18.75;45.09
34674;BME280;20879;55.668;37.858;2023-06-14T04:16:31;100167.69;;;18.60;45.48
34674;BME280;20879;55.668;37.858;2023-06-14T04:19:01;100179.38;;;18.73;45.09
34674;BME280;20879;55.668;37.858;2023-06-14T04:21:30;100187.72;;;18.61;44.66
34674;BME280;20879;55.668;37.858;2023-06-14T04:24:04;100155.00;;;18.27;45.33
34674;BME280;20879;55.668;37.858;2023-06-14T04:26:33;100175.19;;;18.47;45.18
34674;BME280;20879;55.668;37.858;2023-06-14T04:29:11;100182.66;;;18.56;45.68
34674;BME280;20879;55.668;37.858;2023-06-14T04:31:46;100183.41;;;18.60;44.35
34674;BME280;20879;55.668;37.858;2023-06-14T04:34:22;100187.97;;;18.55;44.70
34674;BME280;20879;55.668;37.858;2023-06-14T04:36:56;100156.00;;;18.46;44.38
34674;BME280;20879;55.668;37.858;2023-06-14T04:39:32;100179.78;;;18.62;44.60
34674;BME280;20879;55.668;37.858;2023-06-14T04:42:02;100183.69;;;18.74;44.73
34674;BME280;20879;55.668;37.858;2023-06-14T04:44:41;100173.72;;;18.82;44.30
34674;BME280;20879;55.668;37.858;2023-06-14T04:47:12;100163.72;;;18.92;44.21
34674;BME280;20879;55.668;37.858;2023-06-14T04:49:43;100176.19;;;18.87;43.42
34674;BME280;20879;55.668;37.858;2023-06-14T04:52:13;100159.81;;;18.80;44.02
34674;BME280;20879;55.668;37.858;2023-06-14T04:54:50;100178.84;;;18.85;43.91
34674;BME280;20879;55.668;37.858;2023-06-14T04:57:23;100157.28;;;18.79;43.51
34674;BME280;20879;55.668;37.858;2023-06-14T05:00:10;100173.41;;;18.90;43.43
34674;BME280;20879;55.668;37.858;2023-06-14T05:02:41;100153.84;;;18.77;43.85
34674;BME280;20879;55.668;37.858;2023-06-14T05:05:17;100177.81;;;18.90;44.24
34674;BME280;20879;55.668;37.858;2023-06-14T05:07:51;100164.44;;;18.96;43.57
34674;BME280;20879;55.668;37.858;2023-06-14T05:10:36;100164.56;;;18.93;43.94
34674;BME280;20879;55.668;37.858;2023-06-14T05:13:19;100157.50;;;18.95;43.94
34674;BME280;20879;55.668;37.858;2023-06-14T05:15:58;100174.94;;;18.96;43.96
34674;BME280;20879;55.668;37.858;2023-06-14T05:18:27;100170.22;;;19.04;43.34
34674;BME280;20879;55.668;37.858;2023-06-14T05:20:57;100174.78;;;18.99;43.68
34674;BME280;20879;55.668;37.858;2023-06-14T05:23:26;100173.13;;;18.98;43.46
34674;BME280;20879;55.668;37.858;2023-06-14T05:25:56;100172.84;;;19.04;43.34
34674;BME280;20879;55.668;37.858;2023-06-14T05:28:40;100155.59;;;18.98;44.58
34674;BME280;20879;55.668;37.858;2023-06-14T05:31:11;100166.16;;;18.97;44.18
34674;BME280;20879;55.668;37.858;2023-06-14T05:33:46;100177.56;;;18.96;43.51
34674;BME280;20879;55.668;37.858;2023-06-14T05:36:15;100170.78;;;18.90;43.61
34674;BME280;20879;55.668;37.858;2023-06-14T05:38:45;100169.03;;;18.91;43.48
34674;BME280;20879;55.668;37.858;2023-06-14T05:41:14;100178.09;;;19.04;43.66
34674;BME280;20879;55.668;37.858;2023-06-14T05:43:44;100177.56;;;19.16;42.86
34674;BME280;20879;55.668;37.858;2023-06-14T05:46:15;100179.41;;;19.14;43.06
34674;BME280;20879;55.668;37.858;2023-06-14T05:48:49;100175.88;;;19.15;43.27
34674;BME280;20879;55.668;37.858;2023-06-14T05:54:03;100151.97;;;19.01;42.25
34674;BME280;20879;55.668;37.858;2023-06-14T05:56:37;100189.38;;;19.06;41.45
34674;BME280;20879;55.668;37.858;2023-06-14T05:59:07;100155.78;;;18.94;41.18
34674;BME280;20879;55.668;37.858;2023-06-14T06:01:39;100182.88;;;18.94;40.88
34674;BME280;20879;55.668;37.858;2023-06-14T06:04:14;100175.13;;;18.91;40.81
34674;BME280;20879;55.668;37.858;2023-06-14T06:06:43;100184.84;;;18.89;40.63
34674;BME280;20879;55.668;37.858;2023-06-14T06:09:18;100181.06;;;18.96;41.31
34674;BME280;20879;55.668;37.858;2023-06-14T06:11:53;100174.44;;;19.08;40.03
34674;BME280;20879;55.668;37.858;2023-06-14T06:14:28;100182.88;;;19.15;41.35
34674;BME280;20879;55.668;37.858;2023-06-14T06:17:00;100165.88;;;19.24;40.12
34674;BME280;20879;55.668;37.858;2023-06-14T06:19:29;100148.78;;;19.34;39.38
34674;BME280;20879;55.668;37.858;2023-06-14T06:21:59;100165.94;;;19.22;39.49
34674;BME280;20879;55.668;37.858;2023-06-14T06:24:28;100182.63;;;19.21;39.79
34674;BME280;20879;55.668;37.858;2023-06-14T06:26:57;100165.88;;;19.24;38.94
34674;BME280;20879;55.668;37.858;2023-06-14T06:29:27;100172.97;;;19.21;38.53
34674;BME280;20879;55.668;37.858;2023-06-14T06:31:56;100151.16;;;19.19;37.82
34674;BME280;20879;55.668;37.858;2023-06-14T06:34:39;100155.03;;;19.31;37.82
34674;BME280;20879;55.668;37.858;2023-06-14T06:37:08;100161.41;;;19.26;37.46
34674;BME280;20879;55.668;37.858;2023-06-14T06:39:38;100162.91;;;19.31;36.96
34674;BME280;20879;55.668;37.858;2023-06-14T06:42:07;100154.91;;;19.34;36.90
34674;BME280;20879;55.668;37.858;2023-06-14T06:44:37;100167.03;;;19.37;36.30
34674;BME280;20879;55.668;37.858;2023-06-14T06:47:07;100158.78;;;19.26;37.12
34674;BME280;20879;55.668;37.858;2023-06-14T06:49:40;100168.53;;;19.43;36.80
34674;BME280;20879;55.668;37.858;2023-06-14T06:52:14;100149.81;;;19.50;35.82
34674;BME280;20879;55.668;37.858;2023-06-14T06:54:44;100173.16;;;19.56;36.13
34674;BME280;20879;55.668;37.858;2023-06-14T06:57:13;100169.28;;;19.65;36.32
34674;BME280;20879;55.668;37.858;2023-06-14T06:59:43;100180.34;;;19.72;36.39
34674;BME280;20879;55.668;37.858;2023-06-14T07:02:12;100169.69;;;19.75;35.54
34674;BME280;20879;55.668;37.858;2023-06-14T07:04:44;100173.25;;;19.74;36.25
34674;BME280;20879;55.668;37.858;2023-06-14T07:07:13;100142.84;;;19.49;36.38
34674;BME280;20879;55.668;37.858;2023-06-14T07:09:47;100132.66;;;19.62;36.88
34674;BME280;20879;55.668;37.858;2023-06-14T07:12:19;100154.78;;;19.56;35.95
34674;BME280;20879;55.668;37.858;2023-06-14T07:14:48;100166.94;;;19.59;35.73
34674;BME280;20879;55.668;37.858;2023-06-14T07:17:18;100168.75;;;19.57;35.59
34674;BME280;20879;55.668;37.858;2023-06-14T07:19:49;100158.75;;;19.65;36.29
34674;BME280;20879;55.668;37.858;2023-06-14T07:22:20;100156.63;;;19.73;35.19
34674;BME280;20879;55.668;37.858;2023-06-14T07:24:55;100151.84;;;19.83;35.75
34674;BME280;20879;55.668;37.858;2023-06-14T07:27:30;100163.25;;;19.82;36.24
34674;BME280;20879;55.668;37.858;2023-06-14T07:30:15;100158.88;;;19.83;36.64
34674;BME280;20879;55.668;37.858;2023-06-14T07:32:44;100149.97;;;19.85;36.36
34674;BME280;20879;55.668;37.858;2023-06-14T07:35:16;100163.09;;;19.85;36.59
34674;BME280;20879;55.668;37.858;2023-06-14T07:37:45;100153.81;;;19.97;36.24
34674;BME280;20879;55.668;37.858;2023-06-14T07:40:15;100163.63;;;19.94;36.93
34674;BME280;20879;55.668;37.858;2023-06-14T07:42:49;100156.03;;;19.87;36.42
34674;BME280;20879;55.668;37.858;2023-06-14T07:45:20;100136.75;;;19.68;36.68
34674;BME280;20879;55.668;37.858;2023-06-14T07:47:50;100156.72;;;19.91;36.84
34674;BME280;20879;55.668;37.858;2023-06-14T07:50:22;100157.75;;;19.88;36.28
34674;BME280;20879;55.668;37.858;2023-06-14T07:52:53;100146.28;;;19.89;36.34
34674;BME280;20879;55.668;37.858;2023-06-14T07:55:27;100131.00;;;19.98;35.91
34674;BME280;20879;55.668;37.858;2023-06-14T07:58:12;100163.75;;;19.90;35.19
34674;BME280;20879;55.668;37.858;2023-06-14T08:00:41;100153.03;;;19.95;35.52
34674;BME280;20879;55.668;37.858;2023-06-14T08:03:10;100124.50;;;19.87;35.88
34674;BME280;20879;55.668;37.858;2023-06-14T08:05:43;100140.00;;;20.11;35.82
34674;BME280;20879;55.668;37.858;2023-06-14T08:08:12;100148.25;;;20.22;35.56
34674;BME280;20879;55.668;37.858;2023-06-14T08:10:42;100135.69;;;20.28;35.47
34674;BME280;20879;55.668;37.858;2023-06-14T08:13:11;100137.06;;;20.17;34.76
34674;BME280;20879;55.668;37.858;2023-06-14T08:15:41;100139.72;;;20.17;34.76
34674;BME280;20879;55.668;37.858;2023-06-14T08:18:11;100152.78;;;20.19;35.51
34674;BME280;20879;55.668;37.858;2023-06-14T08:23:32;100153.03;;;20.32;34.67
34674;BME280;20879;55.668;37.858;2023-06-14T08:26:07;100151.56;;;20.26;34.27
34674;BME280;20879;55.668;37.858;2023-06-14T08:28:37;100136.34;;;20.33;34.21
34674;BME280;20879;55.668;37.858;2023-06-14T08:31:19;100126.81;;;20.30;34.08
34674;BME280;20879;55.668;37.858;2023-06-14T08:33:49;100137.41;;;20.29;33.83
34674;BME280;20879;55.668;37.858;2023-06-14T08:36:20;100122.03;;;20.38;34.13
34674;BME280;20879;55.668;37.858;2023-06-14T08:38:50;100153.59;;;20.38;34.06
34674;BME280;20879;55.668;37.858;2023-06-14T08:41:21;100138.50;;;20.24;34.49
34674;BME280;20879;55.668;37.858;2023-06-14T08:44:00;100134.03;;;20.44;34.72
34674;BME280;20879;55.668;37.858;2023-06-14T08:46:32;100147.03;;;20.47;34.39
34674;BME280;20879;55.668;37.858;2023-06-14T08:49:04;100115.16;;;20.36;34.61
34674;BME280;20879;55.668;37.858;2023-06-14T08:51:36;100136.44;;;20.49;33.93
34674;BME280;20879;55.668;37.858;2023-06-14T08:54:08;100121.50;;;20.49;34.71
34674;BME280;20879;55.668;37.858;2023-06-14T08:56:39;100117.25;;;20.64;33.58
34674;BME280;20879;55.668;37.858;2023-06-14T08:59:11;100133.41;;;20.56;32.95
34674;BME280;20879;55.668;37.858;2023-06-14T09:01:42;100108.66;;;20.60;32.74
34674;BME280;20879;55.668;37.858;2023-06-14T09:04:32;100115.00;;;20.56;31.54
34674;BME280;20879;55.668;37.858;2023-06-14T09:07:05;100120.69;;;20.66;32.30
34674;BME280;20879;55.668;37.858;2023-06-14T09:09:39;100087.97;;;20.72;32.71
34674;BME280;20879;55.668;37.858;2023-06-14T09:12:19;100090.25;;;20.60;33.67
34674;BME280;20879;55.668;37.858;2023-06-14T09:14:49;100094.34;;;20.49;33.61
34674;BME280;20879;55.668;37.858;2023-06-14T09:17:18;100117.31;;;20.63;34.05
34674;BME280;20879;55.668;37.858;2023-06-14T09:19:48;100104.84;;;20.68;34.17
34674;BME280;20879;55.668;37.858;2023-06-14T09:22:25;100107.13;;;20.74;33.55
34674;BME280;20879;55.668;37.858;2023-06-14T09:24:55;100110.91;;;20.86;33.86
34674;BME280;20879;55.668;37.858;2023-06-14T09:27:25;100077.16;;;20.94;32.09
34674;BME280;20879;55.668;37.858;2023-06-14T09:29:56;100075.06;;;20.83;31.68
34674;BME280;20879;55.668;37.858;2023-06-14T09:32:25;100065.94;;;20.90;31.94
34674;BME280;20879;55.668;37.858;2023-06-14T09:35:00;100094.72;;;20.93;32.13
34674;BME280;20879;55.668;37.858;2023-06-14T09:37:32;100095.50;;;20.95;32.04
34674;BME280;20879;55.668;37.858;2023-06-14T09:40:11;100106.78;;;20.98;31.71
34674;BME280;20879;55.668;37.858;2023-06-14T09:42:45;100098.59;;;20.86;31.67
34674;BME280;20879;55.668;37.858;2023-06-14T09:45:15;100091.41;;;20.90;31.46
34674;BME280;20879;55.668;37.858;2023-06-14T09:47:55;100089.88;;;20.86;31.36
34674;BME280;20879;55.668;37.858;2023-06-14T09:50:39;100070.56;;;21.03;32.14
34674;BME280;20879;55.668;37.858;2023-06-14T09:53:24;100088.75;;;21.07;31.63
34674;BME280;20879;55.668;37.858;2023-06-14T09:55:55;100081.69;;;21.08;31.90
34674;BME280;20879;55.668;37.858;2023-06-14T09:58:33;100086.19;;;21.06;32.52
34674;BME280;20879;55.668;37.858;2023-06-14T10:01:07;100069.22;;;21.11;32.60
34674;BME280;20879;55.668;37.858;2023-06-14T10:03:41;100081.06;;;21.20;31.98
34674;BME280;20879;55.668;37.858;2023-06-14T10:06:22;100090.31;;;21.27;32.05
34674;BME280;20879;55.668;37.858;2023-06-14T10:08:57;100087.06;;;21.22;31.39
34674;BME280;20879;55.668;37.858;2023-06-14T10:11:27;100064.28;;;21.21;32.10
34674;BME280;20879;55.668;37.858;2023-06-14T10:13:58;100073.81;;;21.24;31.60
34674;BME280;20879;55.668;37.858;2023-06-14T10:16:30;100076.19;;;21.28;31.59
34674;BME280;20879;55.668;37.858;2023-06-14T10:19:07;100073.09;;;21.38;31.03
34674;BME280;20879;55.668;37.858;2023-06-14T10:21:46;100071.22;;;21.40;31.15
34674;BME280;20879;55.668;37.858;2023-06-14T10:24:29;100047.16;;;21.46;31.33
34674;BME280;20879;55.668;37.858;2023-06-14T10:27:00;100047.66;;;21.37;31.80
34674;BME280;20879;55.668;37.858;2023-06-14T10:29:30;100062.88;;;21.47;31.82
34674;BME280;20879;55.668;37.858;2023-06-14T10:32:00;100067.22;;;21.48;31.29
34674;BME280;20879;55.668;37.858;2023-06-14T10:34:38;100073.66;;;21.43;31.82
34674;BME280;20879;55.668;37.858;2023-06-14T10:37:11;100067.66;;;21.41;32.11
34674;BME280;20879;55.668;37.858;2023-06-14T10:39:44;100057.38;;;21.52;31.76
34674;BME280;20879;55.668;37.858;2023-06-14T10:42:20;100060.63;;;21.57;32.35
34674;BME280;20879;55.668;37.858;2023-06-14T10:44:50;100036.22;;;21.54;32.14
34674;BME280;20879;55.668;37.858;2023-06-14T10:47:25;100054.84;;;21.67;31.79
34674;BME280;20879;55.668;37.858;2023-06-14T10:50:04;100048.19;;;21.59;32.11
34674;BME280;20879;55.668;37.858;2023-06-14T10:52:37;100042.66;;;21.64;32.36
34674;BME280;20879;55.668;37.858;2023-06-14T10:55:15;100038.84;;;21.70;32.24
34674;BME280;20879;55.668;37.858;2023-06-14T10:57:50;100024.38;;;21.77;31.86
34674;BME280;20879;55.668;37.858;2023-06-14T11:00:24;100025.06;;;21.80;32.38
34674;BME280;20879;55.668;37.858;2023-06-14T11:06:13;100040.81;;;21.82;31.99
34674;BME280;20879;55.668;37.858;2023-06-14T11:11:51;100023.97;;;21.85;31.68
34674;BME280;20879;55.668;37.858;2023-06-14T11:14:23;100026.28;;;21.75;31.85
34674;BME280;20879;55.668;37.858;2023-06-14T11:16:52;100022.00;;;21.88;31.28
34674;BME280;20879;55.668;37.858;2023-06-14T11:19:27;100026.25;;;21.91;31.89
34674;BME280;20879;55.668;37.858;2023-06-14T11:21:56;100010.91;;;21.97;31.58
34674;BME280;20879;55.668;37.858;2023-06-14T11:24:26;100012.75;;;22.11;31.69
34674;BME280;20879;55.668;37.858;2023-06-14T11:26:57;100011.09;;;22.25;31.41
34674;BME280;20879;55.668;37.858;2023-06-14T11:29:28;100018.28;;;22.37;31.35
34674;BME280;20879;55.668;37.858;2023-06-14T11:31:58;100010.72;;;22.31;31.43
34674;BME280;20879;55.668;37.858;2023-06-14T11:34:28;100008.94;;;22.31;30.99
34674;BME280;20879;55.668;37.858;2023-06-14T11:36:57;100016.28;;;22.26;31.08
34674;BME280;20879;55.668;37.858;2023-06-14T11:39:27;100008.28;;;22.28;30.94
34674;BME280;20879;55.668;37.858;2023-06-14T11:41:58;100010.81;;;22.29;30.69
34674;BME280;20879;55.668;37.858;2023-06-14T11:44:28;100005.78;;;22.41;31.08
34674;BME280;20879;55.668;37.858;2023-06-14T11:46:57;100001.81;;;22.33;30.96
34674;BME280;20879;55.668;37.858;2023-06-14T11:49:26;99996.53;;;22.33;31.27
34674;BME280;20879;55.668;37.858;2023-06-14T11:51:56;99991.91;;;22.37;31.19
34674;BME280;20879;55.668;37.858;2023-06-14T11:54:25;99991.25;;;22.33;31.24
34674;BME280;20879;55.668;37.858;2023-06-14T11:56:54;99984.09;;;22.36;31.65
34674;BME280;20879;55.668;37.858;2023-06-14T11:59:31;99976.38;;;22.47;31.57
34674;BME280;20879;55.668;37.858;2023-06-14T12:02:03;99970.53;;;22.56;31.06
34674;BME280;20879;55.668;37.858;2023-06-14T12:04:44;99989.09;;;22.55;31.55
34674;BME280;20879;55.668;37.858;2023-06-14T12:07:22;99982.25;;;22.52;31.18
34674;BME280;20879;55.668;37.858;2023-06-14T12:10:09;99954.63;;;22.43;31.46
34674;BME280;20879;55.668;37.858;2023-06-14T12:12:44;99976.59;;;22.58;32.09
34674;BME280;20879;55.668;37.858;2023-06-14T12:15:16;99959.25;;;22.68;31.05
34674;BME280;20879;55.668;37.858;2023-06-14T12:17:47;99979.59;;;22.66;30.66
34674;BME280;20879;55.668;37.858;2023-06-14T12:20:17;99968.69;;;22.58;30.56
34674;BME280;20879;55.668;37.858;2023-06-14T12:22:51;99963.84;;;22.65;30.92
34674;BME280;20879;55.668;37.858;2023-06-14T12:25:25;99964.63;;;22.67;30.53
34674;BME280;20879;55.668;37.858;2023-06-14T12:27:58;99963.22;;;22.76;30.74
34674;BME280;20879;55.668;37.858;2023-06-14T12:30:29;99961.09;;;22.81;30.90
34674;BME280;20879;55.668;37.858;2023-06-14T12:32:59;99973.38;;;22.82;31.18
34674;BME280;20879;55.668;37.858;2023-06-14T12:35:29;99930.31;;;22.67;30.98
34674;BME280;20879;55.668;37.858;2023-06-14T12:38:05;99952.81;;;22.87;31.18
34674;BME280;20879;55.668;37.858;2023-06-14T12:40:46;99948.59;;;22.84;31.04
34674;BME280;20879;55.668;37.858;2023-06-14T12:50:52;99931.81;;;22.71;31.05
34674;BME280;20879;55.668;37.858;2023-06-14T12:53:21;99950.19;;;22.73;30.44
34674;BME280;20879;55.668;37.858;2023-06-14T12:55:51;99905.69;;;22.81;30.62
34674;BME280;20879;55.668;37.858;2023-06-14T12:58:25;99922.31;;;22.68;30.84
34674;BME280;20879;55.668;37.858;2023-06-14T13:00:54;99929.63;;;22.78;30.66
34674;BME280;20879;55.668;37.858;2023-06-14T13:03:24;99927.00;;;22.78;30.03
34674;BME280;20879;55.668;37.858;2023-06-14T13:05:55;99909.28;;;22.80;30.49
34674;BME280;20879;55.668;37.858;2023-06-14T13:08:30;99928.88;;;22.90;30.13
34674;BME280;20879;55.668;37.858;2023-06-14T13:11:00;99932.66;;;22.86;29.86
34674;BME280;20879;55.668;37.858;2023-06-14T13:13:30;99948.59;;;22.84;30.04
34674;BME280;20879;55.668;37.858;2023-06-14T13:16:10;99941.69;;;22.96;30.23
34674;BME280;20879;55.668;37.858;2023-06-14T13:18:41;99933.94;;;23.08;29.47
34674;BME280;20879;55.668;37.858;2023-06-14T13:21:18;99913.94;;;23.18;29.20
34674;BME280;20879;55.668;37.858;2023-06-14T13:23:53;99932.31;;;23.19;29.12
34674;BME280;20879;55.668;37.858;2023-06-14T13:26:23;99924.69;;;23.15;29.26
34674;BME280;20879;55.668;37.858;2023-06-14T13:28:57;99911.63;;;23.26;29.31
34674;BME280;20879;55.668;37.858;2023-06-14T13:31:26;99895.56;;;23.16;29.73